KBNW/BNW METAR and TAF weather

Enter ICAO airport designator
Station Type Date Time Source
KBNW METAR 2018/10/21 03:35 UTC NOAA

KBNW 210335Z AUTO 00000KT 10SM CLR 01/M06 A3037 RMK AO2


Station Type Date Time Source
KBNW Decoded METAR 2018/10/21 03:35 UTC NOAA

Boone Municipal, IA, United States (KBNW) 42-03N 093-51W
Oct 20, 2018 - 11:35 PM EDT / 2018.10.21 0335 UTC
Wind: Calm:0
Visibility: 10 mile(s):0
Sky conditions: clear
Temperature: 33 F (1 C)
Dew Point: 21 F (-6 C)
Relative Humidity: 59%
Pressure (altimeter): 30.37 in. Hg (1028 hPa)
ob: KBNW 210335Z AUTO 00000KT 10SM CLR 01/M06 A3037 RMK AO2
cycle: 3

Station Type Date Time Source
KBNW TAF UTC NOAA

Error!


Example: see airport list